Matherville, Mississippi
Current Conditions -  °F | °C
As of 2:58 AM on Thursday 23 Oct 2014 (Local Time) from KMEI Reporting Station
Clear Clear  
Wind Chill: 44°   Ceiling: Unl
Heat Index: 44°   Visibility: 10mi
Dew Point: 41°   Wind: 3mph
Humidity: 89%   Direction: 350°N
Pressure: 30.12"   Gusts: NA
Location:  31.9032°N, 88.7117°W
Report Text: KMEI 230758Z AUTO 35003KT 10SM CLR 07/05 A3012 RMK AO2 SLP196 T00670050
Loading
Personal Weather Stations






























Interactive Weather Map
Tropical Storm Tracking
New forecast layout! Learn more

10-Day Weather Forecast

Advertisements
Track Severe Weather on mobile